ND18 weather

Judy Strip
Glenburn, North Dakota, United States

Public forecast

Using degrees Fahrenheit for public forecast. Weather courtesy of forecast.io.

METAR (pilot weather report)

Report is more than 2 hours old.

Closest report is Minot Air Force Base, 7.8 nm (14.5 km) SW. Retrieved 2019/07/22 17:56 UTC (2 hours ago):

KMIB 221756Z AUTO 00000KT 10SM CLR 26/14 A3028 RMK AO2 SLP256 T02560141 10256 20118 57005 $

TAF (pilot weather forecast)

Forecast is more than 12 hours old.

Closest forecast is Minot Air Force Base, 7.8 nm (14.5 km) SW. Retrieved 2019/07/19 17:09 UTC (3 days ago):

TAF KMIB 191700Z 1917/2023 29015G20KT 9999 SKC QNH2976INS BECMG 2000/2001 28009KT 9999 FEW150 QNH2980INS TX25/1922Z TN12/2011Z LAST NO AMDS AFT 1917 NEXT 2909